sensor_id;sensor_type;location;lat;lon;timestamp;pressure;altitude;pressure_sealevel;temperature;humidity
2178;BME280;1095;50.992;6.798;2022-07-04T00:01:47;101219.31;;;15.84;68.77
2178;BME280;1095;50.992;6.798;2022-07-04T00:04:14;101223.59;;;15.85;68.88
2178;BME280;1095;50.992;6.798;2022-07-04T00:06:41;101232.84;;;15.81;69.22
2178;BME280;1095;50.992;6.798;2022-07-04T00:09:07;101231.69;;;15.84;68.96
2178;BME280;1095;50.992;6.798;2022-07-04T00:11:34;101221.34;;;15.74;69.31
2178;BME280;1095;50.992;6.798;2022-07-04T00:14:01;101226.81;;;15.73;69.63
2178;BME280;1095;50.992;6.798;2022-07-04T00:16:28;101238.22;;;15.65;69.76
2178;BME280;1095;50.992;6.798;2022-07-04T00:18:56;101237.59;;;15.63;70.07
2178;BME280;1095;50.992;6.798;2022-07-04T00:21:22;101242.59;;;15.58;70.36
2178;BME280;1095;50.992;6.798;2022-07-04T00:23:49;101236.50;;;15.49;70.81
2178;BME280;1095;50.992;6.798;2022-07-04T00:26:16;101248.44;;;15.37;71.49
2178;BME280;1095;50.992;6.798;2022-07-04T00:28:43;101228.19;;;15.30;71.32
2178;BME280;1095;50.992;6.798;2022-07-04T00:31:09;101226.53;;;15.28;71.67
2178;BME280;1095;50.992;6.798;2022-07-04T00:33:36;101235.00;;;15.16;72.05
2178;BME280;1095;50.992;6.798;2022-07-04T00:36:05;101228.78;;;15.09;72.34
2178;BME280;1095;50.992;6.798;2022-07-04T00:38:31;101229.63;;;15.01;72.51
2178;BME280;1095;50.992;6.798;2022-07-04T00:40:58;101226.50;;;15.06;72.39
2178;BME280;1095;50.992;6.798;2022-07-04T00:43:26;101227.81;;;15.02;72.65
2178;BME280;1095;50.992;6.798;2022-07-04T00:45:53;101222.72;;;15.00;72.45
2178;BME280;1095;50.992;6.798;2022-07-04T00:48:20;101219.22;;;15.08;72.00
2178;BME280;1095;50.992;6.798;2022-07-04T00:50:48;101217.59;;;15.07;71.81
2178;BME280;1095;50.992;6.798;2022-07-04T00:53:16;101209.53;;;15.00;72.14
2178;BME280;1095;50.992;6.798;2022-07-04T00:55:45;101218.59;;;15.06;71.75
2178;BME280;1095;50.992;6.798;2022-07-04T00:58:13;101215.63;;;15.01;72.12
2178;BME280;1095;50.992;6.798;2022-07-04T01:00:40;101206.59;;;14.95;71.94
2178;BME280;1095;50.992;6.798;2022-07-04T01:03:07;101208.56;;;14.93;72.29
2178;BME280;1095;50.992;6.798;2022-07-04T01:05:34;101210.91;;;14.88;72.54
2178;BME280;1095;50.992;6.798;2022-07-04T01:08:01;101207.47;;;14.79;73.22
2178;BME280;1095;50.992;6.798;2022-07-04T01:10:29;101219.97;;;14.77;73.12
2178;BME280;1095;50.992;6.798;2022-07-04T01:12:56;101206.16;;;14.75;73.01
2178;BME280;1095;50.992;6.798;2022-07-04T01:15:22;101209.13;;;14.72;73.32
2178;BME280;1095;50.992;6.798;2022-07-04T01:17:49;101204.84;;;14.71;73.24
2178;BME280;1095;50.992;6.798;2022-07-04T01:20:17;101210.28;;;14.70;73.56
2178;BME280;1095;50.992;6.798;2022-07-04T01:22:44;101220.00;;;14.69;73.30
2178;BME280;1095;50.992;6.798;2022-07-04T01:25:10;101209.50;;;14.61;73.77
2178;BME280;1095;50.992;6.798;2022-07-04T01:27:39;101209.84;;;14.58;74.01
2178;BME280;1095;50.992;6.798;2022-07-04T01:30:06;101211.00;;;14.47;74.45
2178;BME280;1095;50.992;6.798;2022-07-04T01:32:33;101219.69;;;14.40;74.86
2178;BME280;1095;50.992;6.798;2022-07-04T01:35:00;101210.97;;;14.39;74.89
2178;BME280;1095;50.992;6.798;2022-07-04T01:37:28;101216.56;;;14.36;74.91
2178;BME280;1095;50.992;6.798;2022-07-04T01:39:54;101212.78;;;14.31;75.04
2178;BME280;1095;50.992;6.798;2022-07-04T01:42:21;101214.94;;;14.35;75.31
2178;BME280;1095;50.992;6.798;2022-07-04T01:44:48;101215.09;;;14.25;75.50
2178;BME280;1095;50.992;6.798;2022-07-04T01:47:15;101210.66;;;14.18;75.71
2178;BME280;1095;50.992;6.798;2022-07-04T01:49:41;101221.72;;;14.13;75.79
2178;BME280;1095;50.992;6.798;2022-07-04T01:52:08;101212.16;;;14.04;76.10
2178;BME280;1095;50.992;6.798;2022-07-04T01:54:37;101215.94;;;14.10;76.23
2178;BME280;1095;50.992;6.798;2022-07-04T01:57:04;101209.84;;;14.01;76.62
2178;BME280;1095;50.992;6.798;2022-07-04T01:59:31;101220.22;;;14.03;77.19
2178;BME280;1095;50.992;6.798;2022-07-04T02:02:18;101213.81;;;14.05;77.02
2178;BME280;1095;50.992;6.798;2022-07-04T02:04:45;101218.25;;;14.05;77.07
2178;BME280;1095;50.992;6.798;2022-07-04T02:07:11;101218.91;;;13.99;77.30
2178;BME280;1095;50.992;6.798;2022-07-04T02:09:39;101229.56;;;13.89;77.36
2178;BME280;1095;50.992;6.798;2022-07-04T02:12:07;101224.97;;;13.91;77.64
2178;BME280;1095;50.992;6.798;2022-07-04T02:14:51;101228.94;;;13.95;77.91
2178;BME280;1095;50.992;6.798;2022-07-04T02:17:20;101234.19;;;13.95;78.03
2178;BME280;1095;50.992;6.798;2022-07-04T02:19:47;101230.06;;;13.84;77.97
2178;BME280;1095;50.992;6.798;2022-07-04T02:22:14;101233.16;;;13.72;78.53
2178;BME280;1095;50.992;6.798;2022-07-04T02:24:43;101232.84;;;13.67;79.03
2178;BME280;1095;50.992;6.798;2022-07-04T02:27:09;101239.25;;;13.64;79.36
2178;BME280;1095;50.992;6.798;2022-07-04T02:29:36;101229.72;;;13.63;79.01
2178;BME280;1095;50.992;6.798;2022-07-04T02:32:03;101225.44;;;13.62;79.23
2178;BME280;1095;50.992;6.798;2022-07-04T02:34:30;101228.72;;;13.64;79.34
2178;BME280;1095;50.992;6.798;2022-07-04T02:36:57;101239.41;;;13.63;79.32
2178;BME280;1095;50.992;6.798;2022-07-04T02:39:24;101235.47;;;13.67;79.62
2178;BME280;1095;50.992;6.798;2022-07-04T02:41:52;101241.06;;;13.64;79.64
2178;BME280;1095;50.992;6.798;2022-07-04T02:44:18;101233.50;;;13.60;80.07
2178;BME280;1095;50.992;6.798;2022-07-04T02:46:45;101244.31;;;13.57;79.79
2178;BME280;1095;50.992;6.798;2022-07-04T02:49:12;101244.16;;;13.59;79.63
2178;BME280;1095;50.992;6.798;2022-07-04T02:51:38;101238.28;;;13.65;79.41
2178;BME280;1095;50.992;6.798;2022-07-04T02:54:05;101237.59;;;13.71;79.31
2178;BME280;1095;50.992;6.798;2022-07-04T02:56:32;101245.00;;;13.68;79.56
2178;BME280;1095;50.992;6.798;2022-07-04T02:59:00;101245.66;;;13.61;79.71
2178;BME280;1095;50.992;6.798;2022-07-04T03:01:26;101257.97;;;13.61;79.95
2178;BME280;1095;50.992;6.798;2022-07-04T03:03:53;101255.50;;;13.59;80.02
2178;BME280;1095;50.992;6.798;2022-07-04T03:06:20;101251.56;;;13.55;80.04
2178;BME280;1095;50.992;6.798;2022-07-04T03:08:46;101263.72;;;13.56;80.37
2178;BME280;1095;50.992;6.798;2022-07-04T03:11:13;101262.72;;;13.57;79.91
2178;BME280;1095;50.992;6.798;2022-07-04T03:13:40;101264.16;;;13.44;80.15
2178;BME280;1095;50.992;6.798;2022-07-04T03:16:08;101278.44;;;13.41;80.90
2178;BME280;1095;50.992;6.798;2022-07-04T03:18:35;101278.44;;;13.41;80.93
2178;BME280;1095;50.992;6.798;2022-07-04T03:21:02;101286.34;;;13.41;80.61
2178;BME280;1095;50.992;6.798;2022-07-04T03:23:30;101277.78;;;13.39;81.32
2178;BME280;1095;50.992;6.798;2022-07-04T03:25:57;101284.00;;;13.38;81.45
2178;BME280;1095;50.992;6.798;2022-07-04T03:28:23;101281.53;;;13.37;81.70
2178;BME280;1095;50.992;6.798;2022-07-04T03:30:50;101290.25;;;13.37;82.02
2178;BME280;1095;50.992;6.798;2022-07-04T03:33:18;101290.88;;;13.31;82.33
2178;BME280;1095;50.992;6.798;2022-07-04T03:35:45;101283.97;;;13.30;82.00
2178;BME280;1095;50.992;6.798;2022-07-04T03:38:12;101297.97;;;13.39;81.88
2178;BME280;1095;50.992;6.798;2022-07-04T03:40:38;101299.47;;;13.41;81.86
2178;BME280;1095;50.992;6.798;2022-07-04T03:43:05;101298.34;;;13.44;81.58
2178;BME280;1095;50.992;6.798;2022-07-04T03:45:32;101297.19;;;13.46;81.40
2178;BME280;1095;50.992;6.798;2022-07-04T03:47:59;101297.50;;;13.43;81.51
2178;BME280;1095;50.992;6.798;2022-07-04T03:50:28;101302.09;;;13.41;81.69
2178;BME280;1095;50.992;6.798;2022-07-04T03:52:55;101300.09;;;13.35;81.93
2178;BME280;1095;50.992;6.798;2022-07-04T03:55:22;101298.97;;;13.38;82.09
2178;BME280;1095;50.992;6.798;2022-07-04T03:57:48;101303.59;;;13.44;82.10
2178;BME280;1095;50.992;6.798;2022-07-04T04:00:15;101302.97;;;13.50;81.92
2178;BME280;1095;50.992;6.798;2022-07-04T04:02:42;101302.53;;;13.63;81.63
2178;BME280;1095;50.992;6.798;2022-07-04T04:05:09;101295.28;;;13.73;80.72
2178;BME280;1095;50.992;6.798;2022-07-04T04:07:55;101307.41;;;14.24;80.06
2178;BME280;1095;50.992;6.798;2022-07-04T04:10:22;101322.31;;;15.13;76.01
2178;BME280;1095;50.992;6.798;2022-07-04T04:12:49;101320.03;;;15.96;72.45
2178;BME280;1095;50.992;6.798;2022-07-04T04:15:16;101320.63;;;16.89;68.80
2178;BME280;1095;50.992;6.798;2022-07-04T04:17:43;101321.56;;;17.41;66.15
2178;BME280;1095;50.992;6.798;2022-07-04T04:20:10;101306.56;;;17.99;63.82
2178;BME280;1095;50.992;6.798;2022-07-04T04:22:37;101306.50;;;18.13;63.53
2178;BME280;1095;50.992;6.798;2022-07-04T04:25:06;101307.78;;;18.39;62.68
2178;BME280;1095;50.992;6.798;2022-07-04T04:27:32;101317.13;;;18.90;60.43
2178;BME280;1095;50.992;6.798;2022-07-04T04:29:59;101319.84;;;18.97;60.00
2178;BME280;1095;50.992;6.798;2022-07-04T04:32:26;101316.19;;;18.70;61.06
2178;BME280;1095;50.992;6.798;2022-07-04T04:34:52;101311.44;;;18.38;61.96
2178;BME280;1095;50.992;6.798;2022-07-04T04:37:19;101309.28;;;17.84;63.52
2178;BME280;1095;50.992;6.798;2022-07-04T04:39:46;101318.75;;;17.64;64.94
2178;BME280;1095;50.992;6.798;2022-07-04T04:42:14;101313.28;;;17.80;64.91
2178;BME280;1095;50.992;6.798;2022-07-04T04:44:41;101326.59;;;17.86;64.56
2178;BME280;1095;50.992;6.798;2022-07-04T04:47:10;101332.38;;;18.33;63.50
2178;BME280;1095;50.992;6.798;2022-07-04T04:49:36;101325.03;;;19.12;60.68
2178;BME280;1095;50.992;6.798;2022-07-04T04:52:03;101333.94;;;19.32;59.93
2178;BME280;1095;50.992;6.798;2022-07-04T04:54:31;101312.06;;;18.96;60.74
2178;BME280;1095;50.992;6.798;2022-07-04T04:56:58;101320.28;;;19.01;60.79
2178;BME280;1095;50.992;6.798;2022-07-04T04:59:26;101314.66;;;19.17;60.40
2178;BME280;1095;50.992;6.798;2022-07-04T05:01:53;101325.38;;;19.78;58.74
2178;BME280;1095;50.992;6.798;2022-07-04T05:04:22;101325.53;;;19.63;59.41
2178;BME280;1095;50.992;6.798;2022-07-04T05:06:48;101324.00;;;20.02;58.42
2178;BME280;1095;50.992;6.798;2022-07-04T05:09:15;101316.03;;;20.08;57.93
2178;BME280;1095;50.992;6.798;2022-07-04T05:11:42;101320.75;;;20.06;58.59
2178;BME280;1095;50.992;6.798;2022-07-04T05:14:09;101322.56;;;19.99;58.88
2178;BME280;1095;50.992;6.798;2022-07-04T05:16:42;101323.72;;;19.70;59.26
2178;BME280;1095;50.992;6.798;2022-07-04T05:19:08;101311.91;;;19.93;58.92
2178;BME280;1095;50.992;6.798;2022-07-04T05:21:36;101309.50;;;20.04;59.16
2178;BME280;1095;50.992;6.798;2022-07-04T05:24:03;101326.28;;;21.04;56.40
2178;BME280;1095;50.992;6.798;2022-07-04T05:26:30;101313.53;;;21.77;53.62
2178;BME280;1095;50.992;6.798;2022-07-04T05:28:56;101317.28;;;22.39;52.67
2178;BME280;1095;50.992;6.798;2022-07-04T05:31:23;101313.28;;;22.98;51.27
2178;BME280;1095;50.992;6.798;2022-07-04T05:33:52;101322.38;;;23.63;48.52
2178;BME280;1095;50.992;6.798;2022-07-04T05:36:20;101329.03;;;23.61;48.74
2178;BME280;1095;50.992;6.798;2022-07-04T05:38:47;101337.00;;;24.09;47.54
2178;BME280;1095;50.992;6.798;2022-07-04T05:41:14;101337.69;;;24.69;46.88
2178;BME280;1095;50.992;6.798;2022-07-04T05:43:41;101333.16;;;24.93;46.31
2178;BME280;1095;50.992;6.798;2022-07-04T05:46:08;101336.84;;;25.39;46.62
2178;BME280;1095;50.992;6.798;2022-07-04T05:48:35;101322.38;;;25.52;44.45
2178;BME280;1095;50.992;6.798;2022-07-04T05:51:03;101334.44;;;25.94;43.39
2178;BME280;1095;50.992;6.798;2022-07-04T05:53:31;101328.69;;;25.34;44.33
2178;BME280;1095;50.992;6.798;2022-07-04T05:55:58;101331.88;;;24.72;46.01
2178;BME280;1095;50.992;6.798;2022-07-04T05:58:25;101340.03;;;25.53;44.05
2178;BME280;1095;50.992;6.798;2022-07-04T06:00:52;101335.00;;;25.68;43.62
2178;BME280;1095;50.992;6.798;2022-07-04T06:03:18;101338.38;;;25.75;43.74
2178;BME280;1095;50.992;6.798;2022-07-04T06:05:45;101339.41;;;25.74;43.48
2178;BME280;1095;50.992;6.798;2022-07-04T06:08:13;101328.28;;;25.94;42.11
2178;BME280;1095;50.992;6.798;2022-07-04T06:10:40;101331.16;;;26.54;40.45
2178;BME280;1095;50.992;6.798;2022-07-04T06:13:06;101331.75;;;26.95;40.73
2178;BME280;1095;50.992;6.798;2022-07-04T06:15:35;101316.84;;;26.65;40.35
2178;BME280;1095;50.992;6.798;2022-07-04T06:18:02;101315.88;;;27.10;40.14
2178;BME280;1095;50.992;6.798;2022-07-04T06:20:46;101316.31;;;27.46;38.24
2178;BME280;1095;50.992;6.798;2022-07-04T06:23:19;101295.50;;;26.37;39.71
2178;BME280;1095;50.992;6.798;2022-07-04T06:25:46;101312.84;;;26.85;40.06
2178;BME280;1095;50.992;6.798;2022-07-04T06:28:12;101317.34;;;27.18;38.79
2178;BME280;1095;50.992;6.798;2022-07-04T06:30:39;101310.16;;;27.23;38.44
2178;BME280;1095;50.992;6.798;2022-07-04T06:33:06;101311.44;;;26.99;38.83
2178;BME280;1095;50.992;6.798;2022-07-04T06:35:32;101303.72;;;26.86;40.23
2178;BME280;1095;50.992;6.798;2022-07-04T06:38:11;101318.75;;;27.47;37.33
2178;BME280;1095;50.992;6.798;2022-07-04T06:40:40;101321.84;;;27.34;38.36
2178;BME280;1095;50.992;6.798;2022-07-04T06:43:08;101323.00;;;27.65;38.31
2178;BME280;1095;50.992;6.798;2022-07-04T06:45:35;101326.69;;;28.39;35.81
2178;BME280;1095;50.992;6.798;2022-07-04T06:48:04;101326.44;;;27.82;35.50
2178;BME280;1095;50.992;6.798;2022-07-04T06:50:31;101327.50;;;27.81;35.44
2178;BME280;1095;50.992;6.798;2022-07-04T06:52:58;101313.28;;;27.86;36.01
2178;BME280;1095;50.992;6.798;2022-07-04T06:55:34;101313.56;;;27.62;34.44
2178;BME280;1095;50.992;6.798;2022-07-04T06:58:07;101314.38;;;27.90;33.42
2178;BME280;1095;50.992;6.798;2022-07-04T07:00:35;101313.16;;;28.02;32.48
2178;BME280;1095;50.992;6.798;2022-07-04T07:03:02;101315.81;;;28.24;32.86
2178;BME280;1095;50.992;6.798;2022-07-04T07:05:30;101310.81;;;27.79;34.21
2178;BME280;1095;50.992;6.798;2022-07-04T07:07:57;101329.38;;;28.77;31.60
2178;BME280;1095;50.992;6.798;2022-07-04T07:10:23;101315.00;;;27.48;33.67
2178;BME280;1095;50.992;6.798;2022-07-04T07:12:50;101318.34;;;28.09;32.28
2178;BME280;1095;50.992;6.798;2022-07-04T07:15:18;101303.28;;;27.32;33.86
2178;BME280;1095;50.992;6.798;2022-07-04T07:17:45;101308.50;;;27.44;33.50
2178;BME280;1095;50.992;6.798;2022-07-04T07:20:12;101304.19;;;27.65;33.07
2178;BME280;1095;50.992;6.798;2022-07-04T07:22:39;101305.03;;;28.61;31.47
2178;BME280;1095;50.992;6.798;2022-07-04T07:25:08;101299.88;;;28.55;30.89
2178;BME280;1095;50.992;6.798;2022-07-04T07:27:34;101316.03;;;28.97;31.47
2178;BME280;1095;50.992;6.798;2022-07-04T07:30:02;101311.53;;;28.28;30.51
2178;BME280;1095;50.992;6.798;2022-07-04T07:32:30;101293.09;;;28.15;30.68
2178;BME280;1095;50.992;6.798;2022-07-04T07:34:57;101305.78;;;28.20;30.85
2178;BME280;1095;50.992;6.798;2022-07-04T07:37:25;101300.47;;;28.25;30.19
2178;BME280;1095;50.992;6.798;2022-07-04T07:39:52;101297.13;;;27.59;31.47
2178;BME280;1095;50.992;6.798;2022-07-04T07:42:19;101310.50;;;28.71;30.56
2178;BME280;1095;50.992;6.798;2022-07-04T07:44:46;101310.50;;;28.07;30.71
2178;BME280;1095;50.992;6.798;2022-07-04T07:47:12;101302.69;;;28.33;30.21
2178;BME280;1095;50.992;6.798;2022-07-04T07:49:41;101313.38;;;28.60;29.50
2178;BME280;1095;50.992;6.798;2022-07-04T07:52:08;101300.13;;;28.95;29.21
2178;BME280;1095;50.992;6.798;2022-07-04T07:54:35;101312.59;;;28.64;29.47
2178;BME280;1095;50.992;6.798;2022-07-04T07:57:02;101318.50;;;28.61;30.83
2178;BME280;1095;50.992;6.798;2022-07-04T07:59:29;101299.19;;;28.37;30.75
2178;BME280;1095;50.992;6.798;2022-07-04T08:01:56;101296.88;;;27.60;32.49
2178;BME280;1095;50.992;6.798;2022-07-04T08:04:23;101298.50;;;27.61;31.66
2178;BME280;1095;50.992;6.798;2022-07-04T08:07:03;101304.25;;;28.24;29.67
2178;BME280;1095;50.992;6.798;2022-07-04T08:09:31;101300.25;;;28.04;31.45
2178;BME280;1095;50.992;6.798;2022-07-04T08:11:58;101296.84;;;28.46;30.79
2178;BME280;1095;50.992;6.798;2022-07-04T08:14:25;101297.16;;;27.91;32.00
2178;BME280;1095;50.992;6.798;2022-07-04T08:16:53;101295.72;;;27.78;32.06
2178;BME280;1095;50.992;6.798;2022-07-04T08:19:19;101303.00;;;27.56;31.45
2178;BME280;1095;50.992;6.798;2022-07-04T08:21:46;101306.38;;;27.68;32.46
2178;BME280;1095;50.992;6.798;2022-07-04T08:24:14;101308.38;;;27.56;32.38
2178;BME280;1095;50.992;6.798;2022-07-04T08:26:41;101314.53;;;28.37;32.48
2178;BME280;1095;50.992;6.798;2022-07-04T08:29:17;101309.63;;;28.24;32.57
2178;BME280;1095;50.992;6.798;2022-07-04T08:31:44;101317.78;;;28.34;33.63
2178;BME280;1095;50.992;6.798;2022-07-04T08:34:11;101310.78;;;28.38;32.18
2178;BME280;1095;50.992;6.798;2022-07-04T08:36:38;101307.16;;;27.95;34.36
2178;BME280;1095;50.992;6.798;2022-07-04T08:39:05;101300.47;;;27.98;33.50
2178;BME280;1095;50.992;6.798;2022-07-04T08:41:36;101298.22;;;27.85;34.83
2178;BME280;1095;50.992;6.798;2022-07-04T08:44:04;101299.53;;;27.33;36.35
2178;BME280;1095;50.992;6.798;2022-07-04T08:46:34;101289.59;;;26.95;35.14
2178;BME280;1095;50.992;6.798;2022-07-04T08:49:02;101295.84;;;27.39;35.59
2178;BME280;1095;50.992;6.798;2022-07-04T08:51:40;101288.78;;;26.56;34.48
2178;BME280;1095;50.992;6.798;2022-07-04T08:54:09;101282.53;;;26.67;34.55
2178;BME280;1095;50.992;6.798;2022-07-04T08:56:51;101287.81;;;27.44;32.64
2178;BME280;1095;50.992;6.798;2022-07-04T08:59:36;101303.84;;;27.83;33.00
2178;BME280;1095;50.992;6.798;2022-07-04T09:02:03;101296.72;;;28.26;33.56
2178;BME280;1095;50.992;6.798;2022-07-04T09:04:30;101295.84;;;27.88;31.65
2178;BME280;1095;50.992;6.798;2022-07-04T09:06:57;101309.22;;;27.83;32.38
2178;BME280;1095;50.992;6.798;2022-07-04T09:09:25;101321.53;;;28.38;32.31
2178;BME280;1095;50.992;6.798;2022-07-04T09:11:54;101309.69;;;28.34;32.78
2178;BME280;1095;50.992;6.798;2022-07-04T09:14:20;101317.28;;;28.42;31.70
2178;BME280;1095;50.992;6.798;2022-07-04T09:16:47;101319.31;;;27.49;33.64
2178;BME280;1095;50.992;6.798;2022-07-04T09:19:19;101307.31;;;26.74;34.05
2178;BME280;1095;50.992;6.798;2022-07-04T09:21:47;101308.47;;;27.39;33.43
2178;BME280;1095;50.992;6.798;2022-07-04T09:24:15;101302.78;;;27.35;33.38
2178;BME280;1095;50.992;6.798;2022-07-04T09:26:44;101299.09;;;27.20;34.15
2178;BME280;1095;50.992;6.798;2022-07-04T09:29:13;101294.22;;;27.17;33.68
2178;BME280;1095;50.992;6.798;2022-07-04T09:31:40;101337.50;;;27.20;33.71
2178;BME280;1095;50.992;6.798;2022-07-04T09:34:07;101328.31;;;25.82;35.46
2178;BME280;1095;50.992;6.798;2022-07-04T09:36:39;101324.00;;;26.60;34.88
2178;BME280;1095;50.992;6.798;2022-07-04T09:39:13;101325.66;;;27.60;34.07
2178;BME280;1095;50.992;6.798;2022-07-04T09:41:54;101323.50;;;27.84;33.70
2178;BME280;1095;50.992;6.798;2022-07-04T09:44:24;101327.81;;;27.90;32.51
2178;BME280;1095;50.992;6.798;2022-07-04T09:46:52;101316.09;;;27.25;33.64
2178;BME280;1095;50.992;6.798;2022-07-04T09:49:19;101326.66;;;28.07;33.42
2178;BME280;1095;50.992;6.798;2022-07-04T09:51:49;101319.09;;;28.04;33.13
2178;BME280;1095;50.992;6.798;2022-07-04T09:54:19;101320.81;;;27.89;34.20
2178;BME280;1095;50.992;6.798;2022-07-04T09:56:51;101316.50;;;27.83;33.67
2178;BME280;1095;50.992;6.798;2022-07-04T09:59:18;101323.25;;;27.90;33.59
2178;BME280;1095;50.992;6.798;2022-07-04T10:01:47;101324.63;;;27.66;33.65
2178;BME280;1095;50.992;6.798;2022-07-04T10:04:14;101318.59;;;26.09;35.85
2178;BME280;1095;50.992;6.798;2022-07-04T10:06:42;101313.84;;;26.62;34.94
2178;BME280;1095;50.992;6.798;2022-07-04T10:09:12;101311.88;;;26.24;35.18
2178;BME280;1095;50.992;6.798;2022-07-04T10:11:40;101306.97;;;25.87;35.96
2178;BME280;1095;50.992;6.798;2022-07-04T10:14:12;101300.94;;;26.42;35.01
2178;BME280;1095;50.992;6.798;2022-07-04T10:16:40;101299.84;;;26.26;34.31
2178;BME280;1095;50.992;6.798;2022-07-04T10:19:08;101295.81;;;26.40;34.97
2178;BME280;1095;50.992;6.798;2022-07-04T10:21:38;101306.66;;;26.00;36.12
2178;BME280;1095;50.992;6.798;2022-07-04T10:24:05;101305.72;;;25.50;36.89
2178;BME280;1095;50.992;6.798;2022-07-04T10:26:32;101288.91;;;25.83;37.72
2178;BME280;1095;50.992;6.798;2022-07-04T10:28:59;101294.81;;;26.30;36.29
2178;BME280;1095;50.992;6.798;2022-07-04T10:31:27;101296.34;;;25.64;37.76
2178;BME280;1095;50.992;6.798;2022-07-04T10:33:55;101287.59;;;25.28;38.04
2178;BME280;1095;50.992;6.798;2022-07-04T10:36:26;101284.28;;;25.78;38.54
2178;BME280;1095;50.992;6.798;2022-07-04T10:38:56;101284.34;;;25.26;38.14
2178;BME280;1095;50.992;6.798;2022-07-04T10:41:25;101280.94;;;25.71;37.35
2178;BME280;1095;50.992;6.798;2022-07-04T10:43:58;101289.06;;;26.38;37.07
2178;BME280;1095;50.992;6.798;2022-07-04T10:46:37;101289.72;;;25.83;36.24
2178;BME280;1095;50.992;6.798;2022-07-04T10:49:06;101274.00;;;26.20;35.92
2178;BME280;1095;50.992;6.798;2022-07-04T10:51:40;101281.06;;;26.09;35.18
2178;BME280;1095;50.992;6.798;2022-07-04T10:54:10;101278.03;;;25.89;37.07
2178;BME280;1095;50.992;6.798;2022-07-04T10:56:43;101266.84;;;26.26;36.08
2178;BME280;1095;50.992;6.798;2022-07-04T10:59:19;101261.38;;;26.71;36.92
2178;BME280;1095;50.992;6.798;2022-07-04T11:01:48;101262.09;;;26.66;35.45
2178;BME280;1095;50.992;6.798;2022-07-04T11:04:50;101260.97;;;26.62;34.44
2178;BME280;1095;50.992;6.798;2022-07-04T11:07:19;101268.63;;;26.03;36.17
2178;BME280;1095;50.992;6.798;2022-07-04T11:09:47;101256.44;;;26.12;35.75
2178;BME280;1095;50.992;6.798;2022-07-04T11:12:34;101250.59;;;26.16;35.55
2178;BME280;1095;50.992;6.798;2022-07-04T11:15:17;101249.03;;;26.53;34.87
2178;BME280;1095;50.992;6.798;2022-07-04T11:17:44;101247.19;;;26.75;34.02
2178;BME280;1095;50.992;6.798;2022-07-04T11:20:11;101245.56;;;26.74;34.62
2178;BME280;1095;50.992;6.798;2022-07-04T11:22:40;101244.34;;;27.04;34.36
2178;BME280;1095;50.992;6.798;2022-07-04T11:25:07;101251.00;;;26.80;35.10
2178;BME280;1095;50.992;6.798;2022-07-04T11:27:36;101245.53;;;26.53;36.16
2178;BME280;1095;50.992;6.798;2022-07-04T11:30:04;101243.25;;;26.61;35.72
2178;BME280;1095;50.992;6.798;2022-07-04T11:32:33;101251.53;;;26.60;35.25
2178;BME280;1095;50.992;6.798;2022-07-04T11:35:00;101244.03;;;26.40;34.68
2178;BME280;1095;50.992;6.798;2022-07-04T11:37:27;101243.09;;;25.84;36.31
2178;BME280;1095;50.992;6.798;2022-07-04T11:39:56;101246.56;;;25.39;37.74
2178;BME280;1095;50.992;6.798;2022-07-04T11:43:04;101247.41;;;25.57;36.96
2178;BME280;1095;50.992;6.798;2022-07-04T11:45:48;101246.50;;;26.13;35.81
2178;BME280;1095;50.992;6.798;2022-07-04T11:48:21;101248.53;;;26.06;35.67
2178;BME280;1095;50.992;6.798;2022-07-04T11:50:47;101252.88;;;25.90;35.65
2178;BME280;1095;50.992;6.798;2022-07-04T11:53:14;101252.75;;;26.52;35.12
2178;BME280;1095;50.992;6.798;2022-07-04T11:55:52;101253.44;;;26.26;35.74
2178;BME280;1095;50.992;6.798;2022-07-04T11:58:21;101241.78;;;26.03;35.22
2178;BME280;1095;50.992;6.798;2022-07-04T12:00:48;101228.47;;;26.08;36.17
2178;BME280;1095;50.992;6.798;2022-07-04T12:03:14;101223.94;;;25.92;36.16
2178;BME280;1095;50.992;6.798;2022-07-04T12:05:41;101237.25;;;26.21;35.90
2178;BME280;1095;50.992;6.798;2022-07-04T12:08:09;101225.56;;;26.43;35.45
2178;BME280;1095;50.992;6.798;2022-07-04T12:10:36;101228.44;;;26.59;34.57
2178;BME280;1095;50.992;6.798;2022-07-04T12:13:05;101226.22;;;26.72;35.43
2178;BME280;1095;50.992;6.798;2022-07-04T12:15:38;101231.22;;;26.47;35.14
2178;BME280;1095;50.992;6.798;2022-07-04T12:18:15;101231.16;;;26.08;35.72
2178;BME280;1095;50.992;6.798;2022-07-04T12:20:42;101221.72;;;26.23;34.80
2178;BME280;1095;50.992;6.798;2022-07-04T12:23:09;101215.25;;;26.96;34.45
2178;BME280;1095;50.992;6.798;2022-07-04T12:25:38;101217.59;;;26.70;34.43
2178;BME280;1095;50.992;6.798;2022-07-04T12:28:08;101228.50;;;26.42;34.84
2178;BME280;1095;50.992;6.798;2022-07-04T12:30:36;101214.34;;;25.96;36.40
2178;BME280;1095;50.992;6.798;2022-07-04T12:33:04;101216.28;;;26.95;35.03
2178;BME280;1095;50.992;6.798;2022-07-04T12:35:37;101211.56;;;27.02;33.61
2178;BME280;1095;50.992;6.798;2022-07-04T12:38:05;101221.06;;;26.88;34.67
2178;BME280;1095;50.992;6.798;2022-07-04T12:40:32;101208.97;;;26.47;34.64
2178;BME280;1095;50.992;6.798;2022-07-04T12:42:59;101205.16;;;26.64;34.54
2178;BME280;1095;50.992;6.798;2022-07-04T12:45:41;101212.06;;;26.38;34.87
2178;BME280;1095;50.992;6.798;2022-07-04T12:48:15;101214.59;;;26.67;34.01
2178;BME280;1095;50.992;6.798;2022-07-04T12:50:42;101196.78;;;26.39;34.35
2178;BME280;1095;50.992;6.798;2022-07-04T12:53:09;101212.06;;;26.05;35.36
2178;BME280;1095;50.992;6.798;2022-07-04T12:55:40;101190.53;;;25.83;35.22
2178;BME280;1095;50.992;6.798;2022-07-04T12:58:08;101200.53;;;25.71;34.90
2178;BME280;1095;50.992;6.798;2022-07-04T13:00:36;101202.47;;;26.09;35.55
2178;BME280;1095;50.992;6.798;2022-07-04T13:03:04;101209.41;;;26.60;33.97
2178;BME280;1095;50.992;6.798;2022-07-04T13:05:33;101201.41;;;26.27;34.68
2178;BME280;1095;50.992;6.798;2022-07-04T13:08:00;101200.91;;;26.30;35.44
2178;BME280;1095;50.992;6.798;2022-07-04T13:10:26;101202.25;;;26.49;33.65
2178;BME280;1095;50.992;6.798;2022-07-04T13:12:53;101196.28;;;26.42;33.39
2178;BME280;1095;50.992;6.798;2022-07-04T13:15:20;101198.53;;;26.50;34.28
2178;BME280;1095;50.992;6.798;2022-07-04T13:17:48;101192.72;;;26.36;33.70